< < Back
Terminal Aerodrome Forecast


Current Version              Previous Versions:   1  2  3  4  5  6  7  8  9  

Terminal Aerodrome Forecast

295
FTUS44 KMOB 181100 RRA
TAFMOB
TAF
KMOB 181157Z 1812/1912 05004KT P6SM SCT250
     FM181500 06004KT P6SM SCT080 BKN250
     FM190100 03004KT P6SM BKN050=



Latest METAR

804
SAUS80 KWBC 190800 RRA
MTRMOB
METAR KMOB 190756Z AUTO 03005KT 10SM OVC026 11/ A3014 RMK AO2 SLP205
T0111 $


USA.gov is the U.S. government's official web portal to all federal, state and local government web resources and services.